sensor_id;sensor_type;location;lat;lon;timestamp;P1;durP1;ratioP1;P2;durP2;ratioP2
85820;SDS011;76265;50.102;8.854;2024-02-21T00:01:43;10.63;;;3.08;;
85820;SDS011;76265;50.102;8.854;2024-02-21T00:04:09;8.48;;;3.05;;
85820;SDS011;76265;50.102;8.854;2024-02-21T00:06:36;14.18;;;2.65;;
85820;SDS011;76265;50.102;8.854;2024-02-21T00:09:05;10.82;;;3.15;;
85820;SDS011;76265;50.102;8.854;2024-02-21T00:11:32;9.82;;;3.03;;
85820;SDS011;76265;50.102;8.854;2024-02-21T00:13:59;7.88;;;2.83;;
85820;SDS011;76265;50.102;8.854;2024-02-21T00:16:26;4.72;;;2.72;;
85820;SDS011;76265;50.102;8.854;2024-02-21T00:18:53;11.68;;;3.65;;
85820;SDS011;76265;50.102;8.854;2024-02-21T00:21:19;6.18;;;3.13;;
85820;SDS011;76265;50.102;8.854;2024-02-21T00:23:46;9.50;;;3.17;;
85820;SDS011;76265;50.102;8.854;2024-02-21T00:26:17;7.93;;;2.50;;
85820;SDS011;76265;50.102;8.854;2024-02-21T00:28:44;12.35;;;2.97;;
85820;SDS011;76265;50.102;8.854;2024-02-21T00:31:11;12.38;;;3.25;;
85820;SDS011;76265;50.102;8.854;2024-02-21T00:33:38;11.07;;;3.63;;
85820;SDS011;76265;50.102;8.854;2024-02-21T00:36:05;11.73;;;3.05;;
85820;SDS011;76265;50.102;8.854;2024-02-21T00:38:32;9.80;;;3.67;;
85820;SDS011;76265;50.102;8.854;2024-02-21T00:40:59;6.78;;;2.65;;
85820;SDS011;76265;50.102;8.854;2024-02-21T00:43:27;12.57;;;3.30;;
85820;SDS011;76265;50.102;8.854;2024-02-21T00:45:54;12.30;;;3.50;;
85820;SDS011;76265;50.102;8.854;2024-02-21T00:48:22;13.52;;;3.92;;
85820;SDS011;76265;50.102;8.854;2024-02-21T00:50:49;9.80;;;3.85;;
85820;SDS011;76265;50.102;8.854;2024-02-21T00:53:16;15.05;;;3.25;;
85820;SDS011;76265;50.102;8.854;2024-02-21T00:55:43;16.05;;;4.22;;
85820;SDS011;76265;50.102;8.854;2024-02-21T00:58:09;9.25;;;4.05;;
85820;SDS011;76265;50.102;8.854;2024-02-21T01:00:38;9.10;;;4.30;;
85820;SDS011;76265;50.102;8.854;2024-02-21T01:03:05;11.50;;;3.63;;
85820;SDS011;76265;50.102;8.854;2024-02-21T01:05:32;12.52;;;3.60;;
85820;SDS011;76265;50.102;8.854;2024-02-21T01:07:59;8.50;;;4.13;;
85820;SDS011;76265;50.102;8.854;2024-02-21T01:10:26;10.95;;;4.38;;
85820;SDS011;76265;50.102;8.854;2024-02-21T01:12:53;13.60;;;4.25;;
85820;SDS011;76265;50.102;8.854;2024-02-21T01:15:19;11.15;;;3.80;;
85820;SDS011;76265;50.102;8.854;2024-02-21T01:17:48;8.02;;;4.82;;
85820;SDS011;76265;50.102;8.854;2024-02-21T01:20:20;6.65;;;3.63;;
85820;SDS011;76265;50.102;8.854;2024-02-21T01:22:47;17.75;;;4.35;;
85820;SDS011;76265;50.102;8.854;2024-02-21T01:25:14;10.63;;;4.43;;
85820;SDS011;76265;50.102;8.854;2024-02-21T01:27:41;7.20;;;3.75;;
85820;SDS011;76265;50.102;8.854;2024-02-21T01:30:08;8.85;;;4.63;;
85820;SDS011;76265;50.102;8.854;2024-02-21T01:32:37;4.93;;;2.85;;
85820;SDS011;76265;50.102;8.854;2024-02-21T01:35:06;9.00;;;4.18;;
85820;SDS011;76265;50.102;8.854;2024-02-21T01:37:34;9.68;;;3.60;;
85820;SDS011;76265;50.102;8.854;2024-02-21T01:40:01;8.90;;;4.22;;
85820;SDS011;76265;50.102;8.854;2024-02-21T01:42:29;9.68;;;4.07;;
85820;SDS011;76265;50.102;8.854;2024-02-21T01:44:56;9.52;;;3.40;;
85820;SDS011;76265;50.102;8.854;2024-02-21T01:47:23;13.32;;;4.43;;
85820;SDS011;76265;50.102;8.854;2024-02-21T01:49:50;6.72;;;3.60;;
85820;SDS011;76265;50.102;8.854;2024-02-21T01:52:18;8.93;;;3.67;;
85820;SDS011;76265;50.102;8.854;2024-02-21T01:54:45;11.93;;;5.00;;
85820;SDS011;76265;50.102;8.854;2024-02-21T01:57:13;12.18;;;4.10;;
85820;SDS011;76265;50.102;8.854;2024-02-21T01:59:40;12.68;;;5.00;;
85820;SDS011;76265;50.102;8.854;2024-02-21T02:02:07;14.32;;;5.05;;
85820;SDS011;76265;50.102;8.854;2024-02-21T02:04:34;8.88;;;3.92;;
85820;SDS011;76265;50.102;8.854;2024-02-21T02:07:02;11.88;;;4.32;;
85820;SDS011;76265;50.102;8.854;2024-02-21T02:09:31;17.67;;;4.85;;
85820;SDS011;76265;50.102;8.854;2024-02-21T02:11:59;16.20;;;4.03;;
85820;SDS011;76265;50.102;8.854;2024-02-21T02:14:26;17.23;;;4.45;;
85820;SDS011;76265;50.102;8.854;2024-02-21T02:16:53;6.70;;;4.40;;
85820;SDS011;76265;50.102;8.854;2024-02-21T02:19:20;12.40;;;4.82;;
85820;SDS011;76265;50.102;8.854;2024-02-21T02:21:49;13.43;;;5.22;;
85820;SDS011;76265;50.102;8.854;2024-02-21T02:24:23;11.27;;;5.93;;
85820;SDS011;76265;50.102;8.854;2024-02-21T02:26:51;9.50;;;4.18;;
85820;SDS011;76265;50.102;8.854;2024-02-21T02:29:18;12.40;;;4.15;;
85820;SDS011;76265;50.102;8.854;2024-02-21T02:31:45;13.88;;;4.38;;
85820;SDS011;76265;50.102;8.854;2024-02-21T02:34:12;19.98;;;4.45;;
85820;SDS011;76265;50.102;8.854;2024-02-21T02:36:39;10.68;;;4.18;;
85820;SDS011;76265;50.102;8.854;2024-02-21T02:39:06;7.80;;;3.65;;
85820;SDS011;76265;50.102;8.854;2024-02-21T02:41:35;10.43;;;3.95;;
85820;SDS011;76265;50.102;8.854;2024-02-21T02:44:03;8.88;;;3.45;;
85820;SDS011;76265;50.102;8.854;2024-02-21T02:46:30;16.15;;;4.28;;
85820;SDS011;76265;50.102;8.854;2024-02-21T02:48:57;13.30;;;3.72;;
85820;SDS011;76265;50.102;8.854;2024-02-21T02:51:24;14.25;;;4.85;;
85820;SDS011;76265;50.102;8.854;2024-02-21T02:53:51;6.55;;;3.40;;
85820;SDS011;76265;50.102;8.854;2024-02-21T02:56:18;9.07;;;4.07;;
85820;SDS011;76265;50.102;8.854;2024-02-21T02:58:46;12.27;;;4.78;;
85820;SDS011;76265;50.102;8.854;2024-02-21T03:01:13;10.43;;;3.85;;
85820;SDS011;76265;50.102;8.854;2024-02-21T03:03:40;12.07;;;4.07;;
85820;SDS011;76265;50.102;8.854;2024-02-21T03:06:07;8.90;;;4.05;;
85820;SDS011;76265;50.102;8.854;2024-02-21T03:08:34;7.78;;;3.78;;
85820;SDS011;76265;50.102;8.854;2024-02-21T03:11:01;13.23;;;4.07;;
85820;SDS011;76265;50.102;8.854;2024-02-21T03:13:28;12.68;;;4.10;;
85820;SDS011;76265;50.102;8.854;2024-02-21T03:15:56;11.13;;;4.15;;
85820;SDS011;76265;50.102;8.854;2024-02-21T03:18:23;16.45;;;4.90;;
85820;SDS011;76265;50.102;8.854;2024-02-21T03:20:50;15.73;;;4.63;;
85820;SDS011;76265;50.102;8.854;2024-02-21T03:23:17;8.38;;;3.75;;
85820;SDS011;76265;50.102;8.854;2024-02-21T03:25:44;12.75;;;3.90;;
85820;SDS011;76265;50.102;8.854;2024-02-21T03:28:11;19.30;;;4.85;;
85820;SDS011;76265;50.102;8.854;2024-02-21T03:30:38;11.40;;;4.35;;
85820;SDS011;76265;50.102;8.854;2024-02-21T03:33:07;14.98;;;4.28;;
85820;SDS011;76265;50.102;8.854;2024-02-21T03:35:34;7.72;;;4.07;;
85820;SDS011;76265;50.102;8.854;2024-02-21T03:38:01;12.43;;;4.53;;
85820;SDS011;76265;50.102;8.854;2024-02-21T03:40:28;11.68;;;4.70;;
85820;SDS011;76265;50.102;8.854;2024-02-21T03:42:55;10.82;;;4.45;;
85820;SDS011;76265;50.102;8.854;2024-02-21T03:45:22;7.28;;;4.05;;
85820;SDS011;76265;50.102;8.854;2024-02-21T03:47:49;13.05;;;4.97;;
85820;SDS011;76265;50.102;8.854;2024-02-21T03:50:17;8.85;;;3.88;;
85820;SDS011;76265;50.102;8.854;2024-02-21T03:52:44;13.98;;;4.88;;
85820;SDS011;76265;50.102;8.854;2024-02-21T03:55:11;6.55;;;4.07;;
85820;SDS011;76265;50.102;8.854;2024-02-21T03:57:38;10.88;;;3.85;;
85820;SDS011;76265;50.102;8.854;2024-02-21T04:00:06;9.38;;;4.07;;
85820;SDS011;76265;50.102;8.854;2024-02-21T04:02:36;13.55;;;4.35;;
85820;SDS011;76265;50.102;8.854;2024-02-21T04:05:03;9.35;;;4.30;;
85820;SDS011;76265;50.102;8.854;2024-02-21T04:07:32;9.65;;;3.88;;
85820;SDS011;76265;50.102;8.854;2024-02-21T04:09:59;10.18;;;4.25;;
85820;SDS011;76265;50.102;8.854;2024-02-21T04:12:26;10.48;;;3.72;;
85820;SDS011;76265;50.102;8.854;2024-02-21T04:14:53;11.40;;;4.57;;
85820;SDS011;76265;50.102;8.854;2024-02-21T04:17:20;9.38;;;4.28;;
85820;SDS011;76265;50.102;8.854;2024-02-21T04:19:47;10.32;;;4.57;;
85820;SDS011;76265;50.102;8.854;2024-02-21T04:22:14;10.88;;;4.35;;
85820;SDS011;76265;50.102;8.854;2024-02-21T04:24:42;14.48;;;4.10;;
85820;SDS011;76265;50.102;8.854;2024-02-21T04:27:09;15.75;;;4.45;;
85820;SDS011;76265;50.102;8.854;2024-02-21T04:29:36;12.90;;;4.40;;
85820;SDS011;76265;50.102;8.854;2024-02-21T04:32:04;9.25;;;4.25;;
85820;SDS011;76265;50.102;8.854;2024-02-21T04:34:31;12.48;;;4.18;;
85820;SDS011;76265;50.102;8.854;2024-02-21T04:36:58;10.40;;;3.42;;
85820;SDS011;76265;50.102;8.854;2024-02-21T04:39:25;14.07;;;4.93;;
85820;SDS011;76265;50.102;8.854;2024-02-21T04:41:53;9.70;;;4.25;;
85820;SDS011;76265;50.102;8.854;2024-02-21T04:44:20;9.52;;;3.53;;
85820;SDS011;76265;50.102;8.854;2024-02-21T04:46:48;9.43;;;4.13;;
85820;SDS011;76265;50.102;8.854;2024-02-21T04:49:15;12.18;;;4.95;;
85820;SDS011;76265;50.102;8.854;2024-02-21T04:51:42;7.63;;;3.80;;
85820;SDS011;76265;50.102;8.854;2024-02-21T04:54:09;8.77;;;3.30;;
85820;SDS011;76265;50.102;8.854;2024-02-21T04:56:36;9.07;;;4.10;;
85820;SDS011;76265;50.102;8.854;2024-02-21T04:59:04;15.45;;;4.50;;
85820;SDS011;76265;50.102;8.854;2024-02-21T05:01:31;7.80;;;3.33;;
85820;SDS011;76265;50.102;8.854;2024-02-21T05:03:58;7.25;;;3.97;;
85820;SDS011;76265;50.102;8.854;2024-02-21T05:06:25;10.77;;;4.13;;
85820;SDS011;76265;50.102;8.854;2024-02-21T05:08:52;11.50;;;3.58;;
85820;SDS011;76265;50.102;8.854;2024-02-21T05:11:20;7.90;;;3.55;;
85820;SDS011;76265;50.102;8.854;2024-02-21T05:13:47;12.75;;;4.18;;
85820;SDS011;76265;50.102;8.854;2024-02-21T05:16:16;7.93;;;4.20;;
85820;SDS011;76265;50.102;8.854;2024-02-21T05:18:45;7.32;;;3.25;;
85820;SDS011;76265;50.102;8.854;2024-02-21T05:21:12;5.40;;;3.55;;
85820;SDS011;76265;50.102;8.854;2024-02-21T05:23:39;11.73;;;3.85;;
85820;SDS011;76265;50.102;8.854;2024-02-21T05:26:06;3.95;;;3.03;;
85820;SDS011;76265;50.102;8.854;2024-02-21T05:28:33;11.65;;;3.78;;
85820;SDS011;76265;50.102;8.854;2024-02-21T05:31:00;7.40;;;3.17;;
85820;SDS011;76265;50.102;8.854;2024-02-21T05:33:29;8.57;;;3.65;;
85820;SDS011;76265;50.102;8.854;2024-02-21T05:35:56;7.95;;;3.95;;
85820;SDS011;76265;50.102;8.854;2024-02-21T05:38:23;10.65;;;3.30;;
85820;SDS011;76265;50.102;8.854;2024-02-21T05:40:50;8.50;;;3.35;;
85820;SDS011;76265;50.102;8.854;2024-02-21T05:43:17;14.35;;;4.55;;
85820;SDS011;76265;50.102;8.854;2024-02-21T05:45:44;8.48;;;4.07;;
85820;SDS011;76265;50.102;8.854;2024-02-21T05:48:11;11.35;;;3.50;;
85820;SDS011;76265;50.102;8.854;2024-02-21T05:50:39;10.98;;;3.90;;
85820;SDS011;76265;50.102;8.854;2024-02-21T05:53:06;7.78;;;3.70;;
85820;SDS011;76265;50.102;8.854;2024-02-21T05:55:33;7.78;;;3.70;;
85820;SDS011;76265;50.102;8.854;2024-02-21T05:58:00;5.78;;;3.42;;
85820;SDS011;76265;50.102;8.854;2024-02-21T06:00:27;10.02;;;4.00;;
85820;SDS011;76265;50.102;8.854;2024-02-21T06:02:55;8.80;;;4.35;;
85820;SDS011;76265;50.102;8.854;2024-02-21T06:05:22;8.18;;;4.03;;
85820;SDS011;76265;50.102;8.854;2024-02-21T06:07:50;13.98;;;4.35;;
85820;SDS011;76265;50.102;8.854;2024-02-21T06:10:17;10.32;;;4.25;;
85820;SDS011;76265;50.102;8.854;2024-02-21T06:12:44;9.00;;;4.35;;
85820;SDS011;76265;50.102;8.854;2024-02-21T06:15:11;11.20;;;4.15;;
85820;SDS011;76265;50.102;8.854;2024-02-21T06:17:38;10.35;;;4.30;;
85820;SDS011;76265;50.102;8.854;2024-02-21T06:20:05;5.32;;;3.38;;
85820;SDS011;76265;50.102;8.854;2024-02-21T06:22:33;11.38;;;3.90;;
85820;SDS011;76265;50.102;8.854;2024-02-21T06:25:01;12.90;;;4.20;;
85820;SDS011;76265;50.102;8.854;2024-02-21T06:27:29;12.55;;;5.10;;
85820;SDS011;76265;50.102;8.854;2024-02-21T06:29:56;11.60;;;4.10;;
85820;SDS011;76265;50.102;8.854;2024-02-21T06:32:23;12.90;;;3.80;;
85820;SDS011;76265;50.102;8.854;2024-02-21T06:34:50;12.43;;;3.92;;
85820;SDS011;76265;50.102;8.854;2024-02-21T06:37:17;11.35;;;3.92;;
85820;SDS011;76265;50.102;8.854;2024-02-21T06:39:44;8.07;;;2.90;;
85820;SDS011;76265;50.102;8.854;2024-02-21T06:42:13;9.18;;;3.95;;
85820;SDS011;76265;50.102;8.854;2024-02-21T06:44:40;7.28;;;3.08;;
85820;SDS011;76265;50.102;8.854;2024-02-21T06:47:07;11.70;;;4.85;;
85820;SDS011;76265;50.102;8.854;2024-02-21T06:49:34;11.13;;;4.25;;
85820;SDS011;76265;50.102;8.854;2024-02-21T06:52:03;6.05;;;3.47;;
85820;SDS011;76265;50.102;8.854;2024-02-21T06:54:30;8.60;;;3.45;;
85820;SDS011;76265;50.102;8.854;2024-02-21T06:56:57;10.13;;;4.18;;
85820;SDS011;76265;50.102;8.854;2024-02-21T06:59:25;6.88;;;3.72;;
85820;SDS011;76265;50.102;8.854;2024-02-21T07:01:53;16.95;;;4.45;;
85820;SDS011;76265;50.102;8.854;2024-02-21T07:04:21;9.93;;;3.50;;
85820;SDS011;76265;50.102;8.854;2024-02-21T07:06:48;11.20;;;4.35;;
85820;SDS011;76265;50.102;8.854;2024-02-21T07:09:15;9.93;;;4.45;;
85820;SDS011;76265;50.102;8.854;2024-02-21T07:11:42;14.95;;;4.05;;
85820;SDS011;76265;50.102;8.854;2024-02-21T07:14:09;12.38;;;4.40;;
85820;SDS011;76265;50.102;8.854;2024-02-21T07:16:38;8.60;;;3.50;;
85820;SDS011;76265;50.102;8.854;2024-02-21T07:19:05;15.20;;;3.75;;
85820;SDS011;76265;50.102;8.854;2024-02-21T07:21:31;16.80;;;4.28;;
85820;SDS011;76265;50.102;8.854;2024-02-21T07:23:58;4.30;;;2.85;;
85820;SDS011;76265;50.102;8.854;2024-02-21T07:26:25;13.38;;;4.50;;
85820;SDS011;76265;50.102;8.854;2024-02-21T07:28:52;6.60;;;2.92;;
85820;SDS011;76265;50.102;8.854;2024-02-21T07:31:19;7.05;;;3.75;;
85820;SDS011;76265;50.102;8.854;2024-02-21T07:33:48;9.65;;;3.28;;
85820;SDS011;76265;50.102;8.854;2024-02-21T07:36:15;7.40;;;3.40;;
85820;SDS011;76265;50.102;8.854;2024-02-21T07:38:42;6.30;;;3.35;;
85820;SDS011;76265;50.102;8.854;2024-02-21T07:41:09;6.20;;;2.63;;
85820;SDS011;76265;50.102;8.854;2024-02-21T07:43:36;3.92;;;2.30;;
85820;SDS011;76265;50.102;8.854;2024-02-21T07:46:03;8.98;;;2.97;;
85820;SDS011;76265;50.102;8.854;2024-02-21T07:48:30;7.53;;;2.67;;
85820;SDS011;76265;50.102;8.854;2024-02-21T07:50:59;4.90;;;2.30;;
85820;SDS011;76265;50.102;8.854;2024-02-21T07:53:25;8.07;;;2.85;;
85820;SDS011;76265;50.102;8.854;2024-02-21T07:55:52;8.18;;;2.28;;
85820;SDS011;76265;50.102;8.854;2024-02-21T07:58:19;6.32;;;2.95;;
85820;SDS011;76265;50.102;8.854;2024-02-21T08:00:46;3.38;;;2.38;;
85820;SDS011;76265;50.102;8.854;2024-02-21T08:03:14;5.10;;;2.47;;
85820;SDS011;76265;50.102;8.854;2024-02-21T08:05:43;4.38;;;2.00;;
85820;SDS011;76265;50.102;8.854;2024-02-21T08:08:11;7.85;;;2.63;;
85820;SDS011;76265;50.102;8.854;2024-02-21T08:10:43;5.18;;;1.92;;
85820;SDS011;76265;50.102;8.854;2024-02-21T08:13:10;7.68;;;2.15;;
85820;SDS011;76265;50.102;8.854;2024-02-21T08:15:37;6.43;;;2.67;;
85820;SDS011;76265;50.102;8.854;2024-02-21T08:18:05;5.80;;;2.35;;
85820;SDS011;76265;50.102;8.854;2024-02-21T08:20:32;7.00;;;3.38;;
85820;SDS011;76265;50.102;8.854;2024-02-21T08:22:59;9.45;;;3.33;;
85820;SDS011;76265;50.102;8.854;2024-02-21T08:25:28;11.35;;;2.47;;
85820;SDS011;76265;50.102;8.854;2024-02-21T08:27:56;8.50;;;2.50;;
85820;SDS011;76265;50.102;8.854;2024-02-21T08:30:24;3.90;;;1.92;;
85820;SDS011;76265;50.102;8.854;2024-02-21T08:32:51;11.73;;;2.40;;
85820;SDS011;76265;50.102;8.854;2024-02-21T08:35:19;9.85;;;2.05;;
85820;SDS011;76265;50.102;8.854;2024-02-21T08:37:47;6.85;;;2.15;;
85820;SDS011;76265;50.102;8.854;2024-02-21T08:40:15;6.53;;;2.13;;
85820;SDS011;76265;50.102;8.854;2024-02-21T08:42:44;8.95;;;2.95;;
85820;SDS011;76265;50.102;8.854;2024-02-21T08:45:11;4.72;;;2.28;;
85820;SDS011;76265;50.102;8.854;2024-02-21T08:47:39;6.93;;;1.98;;
85820;SDS011;76265;50.102;8.854;2024-02-21T08:50:06;4.35;;;2.00;;
85820;SDS011;76265;50.102;8.854;2024-02-21T08:52:35;5.85;;;2.17;;
85820;SDS011;76265;50.102;8.854;2024-02-21T08:55:02;4.90;;;2.45;;
85820;SDS011;76265;50.102;8.854;2024-02-21T08:57:30;4.72;;;2.03;;
85820;SDS011;76265;50.102;8.854;2024-02-21T09:00:05;7.78;;;2.22;;
85820;SDS011;76265;50.102;8.854;2024-02-21T09:02:35;11.93;;;2.90;;
85820;SDS011;76265;50.102;8.854;2024-02-21T09:05:04;7.40;;;2.97;;
85820;SDS011;76265;50.102;8.854;2024-02-21T09:07:31;8.55;;;2.50;;
85820;SDS011;76265;50.102;8.854;2024-02-21T09:09:58;4.82;;;2.17;;
85820;SDS011;76265;50.102;8.854;2024-02-21T09:12:26;9.07;;;2.45;;
85820;SDS011;76265;50.102;8.854;2024-02-21T09:14:53;7.28;;;2.45;;
85820;SDS011;76265;50.102;8.854;2024-02-21T09:17:22;5.95;;;1.83;;
85820;SDS011;76265;50.102;8.854;2024-02-21T09:19:50;4.72;;;1.67;;
85820;SDS011;76265;50.102;8.854;2024-02-21T09:22:17;5.32;;;2.35;;
85820;SDS011;76265;50.102;8.854;2024-02-21T09:24:44;4.88;;;2.63;;
85820;SDS011;76265;50.102;8.854;2024-02-21T09:27:13;8.43;;;2.38;;
85820;SDS011;76265;50.102;8.854;2024-02-21T09:29:40;10.27;;;2.40;;
85820;SDS011;76265;50.102;8.854;2024-02-21T09:32:07;9.05;;;2.42;;
85820;SDS011;76265;50.102;8.854;2024-02-21T09:34:35;5.65;;;1.88;;
85820;SDS011;76265;50.102;8.854;2024-02-21T09:37:02;7.35;;;2.13;;
85820;SDS011;76265;50.102;8.854;2024-02-21T09:39:29;6.25;;;2.05;;
85820;SDS011;76265;50.102;8.854;2024-02-21T09:41:58;5.43;;;2.00;;
85820;SDS011;76265;50.102;8.854;2024-02-21T09:44:27;7.85;;;2.08;;
85820;SDS011;76265;50.102;8.854;2024-02-21T09:47:02;6.40;;;2.15;;
85820;SDS011;76265;50.102;8.854;2024-02-21T09:49:31;8.15;;;2.88;;
85820;SDS011;76265;50.102;8.854;2024-02-21T09:52:01;9.40;;;2.47;;
85820;SDS011;76265;50.102;8.854;2024-02-21T09:54:30;8.52;;;2.20;;
85820;SDS011;76265;50.102;8.854;2024-02-21T09:56:57;7.10;;;1.92;;
85820;SDS011;76265;50.102;8.854;2024-02-21T09:59:24;8.30;;;2.38;;
85820;SDS011;76265;50.102;8.854;2024-02-21T10:01:54;4.68;;;2.10;;
85820;SDS011;76265;50.102;8.854;2024-02-21T10:04:21;8.52;;;1.77;;
85820;SDS011;76265;50.102;8.854;2024-02-21T10:06:48;5.95;;;2.38;;
85820;SDS011;76265;50.102;8.854;2024-02-21T10:09:23;5.57;;;2.00;;
85820;SDS011;76265;50.102;8.854;2024-02-21T10:11:53;5.32;;;2.28;;
85820;SDS011;76265;50.102;8.854;2024-02-21T10:14:21;8.43;;;2.25;;
85820;SDS011;76265;50.102;8.854;2024-02-21T10:16:55;5.80;;;2.65;;
85820;SDS011;76265;50.102;8.854;2024-02-21T10:19:24;7.13;;;2.22;;
85820;SDS011;76265;50.102;8.854;2024-02-21T10:21:59;9.60;;;2.20;;
85820;SDS011;76265;50.102;8.854;2024-02-21T10:24:30;6.68;;;2.50;;
85820;SDS011;76265;50.102;8.854;2024-02-21T10:27:04;11.05;;;2.92;;
85820;SDS011;76265;50.102;8.854;2024-02-21T10:32:04;2.92;;;1.75;;
85820;SDS011;76265;50.102;8.854;2024-02-21T10:34:32;5.70;;;2.28;;
85820;SDS011;76265;50.102;8.854;2024-02-21T10:37:00;8.15;;;2.15;;
85820;SDS011;76265;50.102;8.854;2024-02-21T10:39:31;13.38;;;2.30;;
85820;SDS011;76265;50.102;8.854;2024-02-21T10:41:59;7.10;;;2.00;;
85820;SDS011;76265;50.102;8.854;2024-02-21T10:44:30;4.63;;;1.98;;
85820;SDS011;76265;50.102;8.854;2024-02-21T10:46:59;6.00;;;2.08;;
85820;SDS011;76265;50.102;8.854;2024-02-21T10:49:26;3.58;;;2.15;;
85820;SDS011;76265;50.102;8.854;2024-02-21T10:51:54;3.40;;;2.45;;
85820;SDS011;76265;50.102;8.854;2024-02-21T10:54:33;5.85;;;2.22;;
85820;SDS011;76265;50.102;8.854;2024-02-21T10:57:09;2.97;;;1.85;;
85820;SDS011;76265;50.102;8.854;2024-02-21T10:59:38;7.50;;;2.17;;
85820;SDS011;76265;50.102;8.854;2024-02-21T11:02:06;7.68;;;2.15;;
85820;SDS011;76265;50.102;8.854;2024-02-21T11:04:33;10.35;;;2.22;;
85820;SDS011;76265;50.102;8.854;2024-02-21T11:07:03;7.90;;;2.45;;
85820;SDS011;76265;50.102;8.854;2024-02-21T11:09:33;5.68;;;2.20;;
85820;SDS011;76265;50.102;8.854;2024-02-21T11:12:01;8.18;;;2.05;;
85820;SDS011;76265;50.102;8.854;2024-02-21T11:16:58;8.18;;;3.03;;
85820;SDS011;76265;50.102;8.854;2024-02-21T11:19:26;8.63;;;2.60;;
85820;SDS011;76265;50.102;8.854;2024-02-21T11:21:54;7.22;;;1.90;;
85820;SDS011;76265;50.102;8.854;2024-02-21T11:24:25;7.25;;;1.95;;
85820;SDS011;76265;50.102;8.854;2024-02-21T11:26:55;8.80;;;2.10;;
85820;SDS011;76265;50.102;8.854;2024-02-21T11:29:23;7.15;;;2.30;;
85820;SDS011;76265;50.102;8.854;2024-02-21T11:31:51;7.57;;;2.10;;
85820;SDS011;76265;50.102;8.854;2024-02-21T11:34:18;3.70;;;1.67;;
85820;SDS011;76265;50.102;8.854;2024-02-21T11:36:46;6.07;;;1.65;;
85820;SDS011;76265;50.102;8.854;2024-02-21T11:39:18;5.90;;;2.15;;
85820;SDS011;76265;50.102;8.854;2024-02-21T11:42:01;5.63;;;2.35;;
85820;SDS011;76265;50.102;8.854;2024-02-21T11:44:29;10.95;;;2.95;;
85820;SDS011;76265;50.102;8.854;2024-02-21T11:46:56;6.65;;;1.60;;
85820;SDS011;76265;50.102;8.854;2024-02-21T11:49:24;6.78;;;2.03;;
85820;SDS011;76265;50.102;8.854;2024-02-21T11:51:57;5.95;;;2.28;;
85820;SDS011;76265;50.102;8.854;2024-02-21T11:54:25;5.60;;;2.10;;
85820;SDS011;76265;50.102;8.854;2024-02-21T11:56:52;5.85;;;2.05;;
85820;SDS011;76265;50.102;8.854;2024-02-21T11:59:20;9.93;;;2.30;;
85820;SDS011;76265;50.102;8.854;2024-02-21T12:01:48;4.90;;;2.30;;
85820;SDS011;76265;50.102;8.854;2024-02-21T12:04:15;4.97;;;1.60;;
85820;SDS011;76265;50.102;8.854;2024-02-21T12:06:42;7.53;;;1.90;;
85820;SDS011;76265;50.102;8.854;2024-02-21T12:09:10;8.23;;;2.20;;
85820;SDS011;76265;50.102;8.854;2024-02-21T12:11:40;5.38;;;2.10;;
85820;SDS011;76265;50.102;8.854;2024-02-21T12:14:07;2.70;;;1.77;;
85820;SDS011;76265;50.102;8.854;2024-02-21T12:16:36;6.28;;;2.00;;
85820;SDS011;76265;50.102;8.854;2024-02-21T12:19:03;7.10;;;2.15;;
85820;SDS011;76265;50.102;8.854;2024-02-21T12:21:31;7.55;;;2.28;;
85820;SDS011;76265;50.102;8.854;2024-02-21T12:24:11;5.38;;;1.98;;
85820;SDS011;76265;50.102;8.854;2024-02-21T12:26:38;9.98;;;2.53;;
85820;SDS011;76265;50.102;8.854;2024-02-21T12:29:05;8.27;;;2.50;;
85820;SDS011;76265;50.102;8.854;2024-02-21T12:31:36;4.85;;;1.75;;
85820;SDS011;76265;50.102;8.854;2024-02-21T12:34:04;7.93;;;2.20;;
85820;SDS011;76265;50.102;8.854;2024-02-21T12:36:31;4.30;;;2.10;;
85820;SDS011;76265;50.102;8.854;2024-02-21T12:38:59;10.52;;;2.75;;
85820;SDS011;76265;50.102;8.854;2024-02-21T12:41:28;9.02;;;2.03;;
85820;SDS011;76265;50.102;8.854;2024-02-21T12:43:56;6.70;;;2.10;;
85820;SDS011;76265;50.102;8.854;2024-02-21T12:46:23;3.72;;;1.52;;
85820;SDS011;76265;50.102;8.854;2024-02-21T12:48:52;4.18;;;2.30;;
85820;SDS011;76265;50.102;8.854;2024-02-21T12:51:19;8.68;;;1.92;;
85820;SDS011;76265;50.102;8.854;2024-02-21T12:53:47;4.32;;;1.70;;
85820;SDS011;76265;50.102;8.854;2024-02-21T12:56:15;4.75;;;2.28;;
85820;SDS011;76265;50.102;8.854;2024-02-21T12:58:42;7.13;;;2.20;;
85820;SDS011;76265;50.102;8.854;2024-02-21T13:01:10;9.57;;;1.80;;
85820;SDS011;76265;50.102;8.854;2024-02-21T13:03:37;5.72;;;1.38;;
85820;SDS011;76265;50.102;8.854;2024-02-21T13:06:06;8.05;;;1.73;;
85820;SDS011;76265;50.102;8.854;2024-02-21T13:08:36;8.57;;;1.55;;
85820;SDS011;76265;50.102;8.854;2024-02-21T13:11:03;2.50;;;1.40;;
85820;SDS011;76265;50.102;8.854;2024-02-21T13:13:31;3.60;;;1.58;;
85820;SDS011;76265;50.102;8.854;2024-02-21T13:15:58;2.83;;;1.52;;
85820;SDS011;76265;50.102;8.854;2024-02-21T13:18:25;11.55;;;2.15;;
85820;SDS011;76265;50.102;8.854;2024-02-21T13:20:52;4.90;;;1.45;;
85820;SDS011;76265;50.102;8.854;2024-02-21T13:23:21;7.25;;;1.67;;
85820;SDS011;76265;50.102;8.854;2024-02-21T13:25:48;6.85;;;1.65;;
85820;SDS011;76265;50.102;8.854;2024-02-21T13:28:16;8.60;;;1.55;;
85820;SDS011;76265;50.102;8.854;2024-02-21T13:30:43;5.95;;;1.70;;
85820;SDS011;76265;50.102;8.854;2024-02-21T13:33:10;5.90;;;1.35;;
85820;SDS011;76265;50.102;8.854;2024-02-21T13:35:40;7.82;;;1.85;;
85820;SDS011;76265;50.102;8.854;2024-02-21T13:38:07;7.35;;;2.63;;
85820;SDS011;76265;50.102;8.854;2024-02-21T13:40:36;4.68;;;1.45;;
85820;SDS011;76265;50.102;8.854;2024-02-21T13:43:03;5.97;;;1.90;;
85820;SDS011;76265;50.102;8.854;2024-02-21T13:45:31;4.78;;;1.63;;
85820;SDS011;76265;50.102;8.854;2024-02-21T13:47:57;5.88;;;2.78;;
85820;SDS011;76265;50.102;8.854;2024-02-21T13:50:27;4.95;;;1.73;;
85820;SDS011;76265;50.102;8.854;2024-02-21T13:52:56;4.07;;;1.70;;
85820;SDS011;76265;50.102;8.854;2024-02-21T13:55:23;7.85;;;1.75;;
85820;SDS011;76265;50.102;8.854;2024-02-21T13:57:53;6.18;;;1.60;;
85820;SDS011;76265;50.102;8.854;2024-02-21T14:00:20;3.90;;;1.52;;
85820;SDS011;76265;50.102;8.854;2024-02-21T14:02:47;6.10;;;1.52;;
85820;SDS011;76265;50.102;8.854;2024-02-21T14:05:14;3.42;;;1.30;;
85820;SDS011;76265;50.102;8.854;2024-02-21T14:07:41;4.88;;;1.63;;
85820;SDS011;76265;50.102;8.854;2024-02-21T14:10:08;4.35;;;1.48;;
85820;SDS011;76265;50.102;8.854;2024-02-21T14:12:36;6.18;;;2.30;;
85820;SDS011;76265;50.102;8.854;2024-02-21T14:15:07;3.67;;;1.45;;
85820;SDS011;76265;50.102;8.854;2024-02-21T14:20:02;5.00;;;1.33;;
85820;SDS011;76265;50.102;8.854;2024-02-21T14:22:30;5.63;;;1.65;;
85820;SDS011;76265;50.102;8.854;2024-02-21T14:24:57;4.75;;;1.45;;
85820;SDS011;76265;50.102;8.854;2024-02-21T14:27:24;4.22;;;1.50;;
85820;SDS011;76265;50.102;8.854;2024-02-21T14:29:51;5.70;;;2.25;;
85820;SDS011;76265;50.102;8.854;2024-02-21T14:32:20;3.92;;;1.67;;
85820;SDS011;76265;50.102;8.854;2024-02-21T14:34:47;3.00;;;1.63;;
85820;SDS011;76265;50.102;8.854;2024-02-21T14:37:14;6.43;;;1.27;;
85820;SDS011;76265;50.102;8.854;2024-02-21T14:39:41;3.20;;;1.30;;
85820;SDS011;76265;50.102;8.854;2024-02-21T14:42:08;6.50;;;2.05;;
85820;SDS011;76265;50.102;8.854;2024-02-21T14:44:36;8.55;;;1.75;;
85820;SDS011;76265;50.102;8.854;2024-02-21T14:47:03;9.25;;;1.67;;
85820;SDS011;76265;50.102;8.854;2024-02-21T14:49:31;3.40;;;1.52;;
85820;SDS011;76265;50.102;8.854;2024-02-21T14:51:58;6.13;;;1.45;;
85820;SDS011;76265;50.102;8.854;2024-02-21T14:54:25;1.92;;;1.20;;